Terminal Aerodrome Forecast
Issued by NWS

Current Version | Previous Version | Text Only | Print | Product List | Glossary On
Versions: 1 2 3 4 5 6 7 8 9 10 11 12 13
467
FTUS42 KMLB 290527
TAFLEE
TAF
KLEE 290527Z 2906/3006 11006KT P6SM SCT060
     FM291400 24005KT P6SM SCT030
     FM292100 06009KT P6SM SCT060 BKN250=

USA.gov is the U.S. government's official web portal to all federal, state and local government web resources and services.